Timeline UpdatesTrip UpdatesNews PostsPvt PostsTravel TipsAdmin PostsConv PostsFollowed PostsChat RequestsBlog PostsPNR Posts

Disclaimer
Search
 
 
Thu Sep 18, 2014 03:04:17 ISTHomeTrainsΣChainsAtlasPNRForumGalleryNewsFAQTripsMembersLoginFeedback
No Recent News for this Train
Other Trains in the News **new
Latest...
.
Mon Sep 01, 2014 (09:35PM)
⇐ Return Journey: Train# 13019

13020/Bagh Express

Time-Table HAS CHANGED.
Sep 01 (11:39PM)
Change Departure Station:
Change Arrival Station:
Post a Train Travel TipPost a Train Travel Tip **new
Post a Comment/Question/Picture/VideoPost a Comment/Question/Picture/Video
Pantry/Catering
✕ NO Pantry Car
✓ Catering Avbl
Loco/Rake Reversals
LJN/Lucknow Junction NER (6); RMU/Rampur Junction (3);
RSA - Rake Sharing
Rake/Coach Composition
LOCO-SLR-GS-GS-A1-B1-S7-S6-S5-S4-S3-S2-S1-GS-GS-GS-SLR
Loco
IZN WDP-4D (KGM-BJU); HWH WAP-4 (BJU-HWH)
News    PNR    Forum    Time-Table    Availability    Fare Chart    Map    Arr/Dep History    Trips    Gallery    ΣChains    X/O    Timeline    
Travel Time: 8h 7m    11 halts    Distance: 268 km    Avg Speed: 33 km/hr
Type: Mail/Express
Zone: ER/Eastern
Departs @ 20:22
Platform# 2
SMTWTFS
Muzaffarpur Junction/MFP 
Arrives @ 04:29 +1 night
Platform# ???
SMTWTFS
Madhupur Junction/MDP 

11 halts. 51 intermediate Stations between Muzaffarpur Junction and Madhupur Junction

Show ALL intermediate Stations  Show Old Time-Table

#CodeStation NameX/OArrivesAvgDepartsAvgHaltPFDay#KmSpeedElevZoneAddress
1KGMKathgodam (3)  -21:55-11-956.423520mNERKathgodam, Uttarakhand
2HDWHaldwani (3)X  22:11 22:10-22:13 22:15-2 5m11-950.533443mNERHaldwani, Uttarakhand
3LKULal Kuan Junction (4)  22:45-22:50 22:47-5 2m--1-934.135262mNERLalkuan, Uttarakhand
4HLDDHaldi Road  22:59 23:00-23:01 23:02-2m--1-926.560236mNERNH 87, Uttarakhand
5RUPCRudrapur City (2)  23:15 23:16-23:17 23:18-2m--1-912.564208mNERUdham Singh Nagar, Uttarakhand
6BLQRBilaspur Road (1)  23:34 23:35-23:36 23:37-2m11-894.534196mNERRampur, Uttar Pradesh
7RMURampur Junction (3)XO00:20 00:25-00:45 00:50-25m--2-867.671190mNRRampur, Uttar Pradesh
8BEBareilly Junction (4)XO  01:38 01:43-01:46 01:50-8 7m12-804.668174mNRBareilly, Uttar Pradesh
9SPNShahjahanpur Junction (3)  02:52-02:57-5m--2-734.140156mNRShahjahanpur, Uttar Pradesh
10ROZARoza Junction (4)X  03:05 03:08-03:07 03:15-2 7m--2-726.886156mNRShahjahanpur, Uttar Pradesh
11HRIHardoi (5)X03:55 03:54-03:57 03:56-2m32-671.251146mNRHardoi, Uttar Pradesh
12LJNLucknow Junction NER (6)X05:55-06:20-25m12-570.114126mNERLucknow, Uttar Pradesh
13BNZBadshahnagar (2)  07:08-07:10-2m12-559.037116mNERLucknow, Uttar Pradesh
14BBKBarabanki Junction (4)X  07:50-07:54-4m--2-534.472122mNRPin-225001, Uttar Pradesh
15JLDJarwal Road (2)  08:34 08:30-08:36 08:32-2m--2-491.248112mNERBehraich, Uttar Pradesh
16GDGonda Junction (3)X  09:15 09:30-09:25 09:40-10m22-445.182110mNERGonda 271001, Uttar Pradesh
17BSTBasti (4)  10:35 10:45-10:40 10:50-5m--2-356.76390mNERBasti 272001, Uttar Pradesh
18KLDKhalilabad (3)  11:02 11:18-11:04 11:20-2m--2-327.13786mNERKhalilabad- 272175, Uttar Pradesh
19GKPGorakhpur Junction (10)X  12:20 12:15-12:40-20 25m--2-293.26484mNERGorakhpur 273001, Uttar Pradesh
20CCChauri Chaura (2)  13:03-13:05-2m--2-268.85084mNERGorakhpur- PinCode:- 273201, Uttar Pradesh
21DEOSDeoria Sadar (3)  13:28 13:35-13:30 13:40-2 5m--2-244.17379mNERDeoria- 274001, Uttar Pradesh
22BTTBhatni Junction (5)  13:55 13:57-14:00 14:02-5m--2-223.35573mNERDeoria, Uttar Pradesh
23BHTRBhatpar Rani (2)X  14:13 14:16-14:15 14:18-2m--2-210.54873mNERDeoria, Uttar Pradesh
24BTKBankata (2)  14:23 14:28-14:25 14:30-2m--2-202.44373mNERDeoria, Uttar Pradesh
25MWMairwa (2)  14:36 14:39-14:38 14:41-2m22-195.94473mNERMairwa, Bihar
26ZRDEJiradei (2)X  14:59 14:56-15:01 14:58-2m--2-184.93669mNERSiwan, Bihar
27SVSiwan Junction (4)X  15:15-15:25-10m--2-174.67170mNERSiwan, Bihar
28DDADuraundha Junction (3)  15:40-15:42-2m--2-156.84164mNERDistt: Siwan, Bihar
29CWChainwa (2)  15:51 15:54-15:53 15:55-2 1m--2-148.61463mNERSiwan, Bihar
30EKMAEkma (3)O  16:11 16:26-16:13 16:28-2m--2-141.35264mNERSaran, Bihar
31DDPDaudpur (2)O  16:33 16:38-16:35 16:40-2m--2-132.72659mNERChhapra, Bihar
32CPRChhapra Junction (6)  17:25-17:35-10m--2-113.46058mNERDistt: Saran, Bihar
33DGADighwara (2)X  18:05 18:06-18:07-2 1m--2-82.56560mECR06158-281240, Bihar
34NYONayagaon (2)X  18:17 18:18-18:19-2 1m--2-70.73653mECRNayagaon Sarai, Bihar
35SEESonpur Junction (4)X  18:39 18:38-18:47 18:43-8 5m--2-59.33356mECRSaran, Bihar
36HJPHajipur Junction (3)  19:00 18:53-19:02 18:58-2 5m--2-53.85655mECR06224-272230, Bihar
37BNRBhagwanpur (2)  19:17 19:19-19:19 19:20-2 1m12-34.25560mECRBhagwanpur, Bihar
38GRLGoraul (2)X  19:27 19:29-19:29 19:30-2 1m12-25.93357mECRVAISHALI, Bihar
39MFPMuzaffarpur Junction (6)»X  20:20 20:17-20:30 20:22-10 5m220.06957mECRMuzaffarpur, Bihar
40DOLDholi (2)X  20:51 20:44-20:53 20:45-2 1m--225.162 ECRDistt. Muzaffarpur, Bihar
41KRBPKhudiram B Pusa (2)  21:05 20:58-21:07 20:59-2 1m--238.55552mECRDistt. Samastipur, Bihar
42KPGMKarpurigram (3)X  21:14 21:07-21:16 21:08-2 1m--245.91451mECRState Highway 49, Bihar
43SPJSamastipur Junction (9)X  21:40 21:35-21:50 21:40-10 5m--252.16655mECRSamastipur, Bihar
44DSSDalsingh Sarai (2)X  22:10 22:01-22:12 22:02-2 1m2275.360 ECR06278-221238, Bihar
45BCABachwara Junction (3)O  22:23 22:13-22:25 22:14-2 1m--286.31549mECRBegusarai, Bihar
46BJUBarauni Junction (9)23:20-00:10-50m--2102.72849mECRBegusarai, Bihar
47KIULKiul Junction (5)  01:35-01:40-5m--3141.93853mECRDist. Lakhisarai, Bihar
48JAJJhajha (4)X  03:05-03:15-10m--3195.270143mECRJhajha, Bihar
49STLSimultala (2)X  03:31-03:33-2m--3213.966247mERSimultala, Bihar
50JSMEJasidih Junction (5)X  03:56-04:01-5m--3239.362271mERJasidih, Jharkhand
51MDPMadhupur Junction (4)•XO  05:20 04:29-05:24-4 55m--3268.481254mER06432-224478, Jharkhand
52VDSVidyasagar (2)X  05:47 05:42-05:49 05:44-2m23292.663250mERJamtara, Jharkhand
53JMTJamtara (2)  06:13 06:01-06:15 06:03-2m23310.548201mERJamtara, Jharkhand
54CRJChittaranjan (3)  06:34 06:21-06:36 06:25-2 4m23324.839182mERMihijam, Jharkhand
55RNPRRupnarayanpur (3)  06:43 06:32-06:45 06:34-2m13329.313191mERChittaranjan, West Bengal
56STNSitarampur Junction (5)XO  07:48 07:30-07:50-2 20m33341.113139mERG T Rd Before Asansol, West Bengal
57ASNAsansol Junction (7)  08:30-08:45-15m--3349.872113mERDist - Bardhaman, West Bengal
58RNGRaniGanj (4)  09:00-09:02-2m--3367.94092mERRaniganj, West Bengal
59UDLAndal Junction (6)X  09:13-09:15-2m--3375.27386mERAndal, West Bengal
60DGRDurgapur (5)X  09:29-09:31-2m--3392.38571mERDurgapur, West Bengal
61PANPanagarh (4)X  09:42-09:44-2m--3407.96170mERKaksa, West Bengal
62BWNBarddhaman Junction (8)X  10:31-10:36-5m--3455.85934mERDist - Barddhaman, West Bengal
63BDCBandel Junction (7)  11:44-11:49-5m--3523.14614mERdist - HOOGHLY, West Bengal
64HWHKolkata Howrah Junction (23)  12:40--133562.6-10mERHowrah 711101, West Bengal
Scroll to Top
Scroll to Bottom